Tallahassee, FL

6:23 PM EDT on September 21, 2014 (GMT -0400)
Tallahassee Regional | Change Station
CLOSE
Current Station
Airport
Location: Tallahassee,
Elevation: 52 ft
Nearby Weather Stations

Elev 52 ft 30.39 °N, 84.35 °W | Updated 30 minutes ago

Partly Cloudy
Partly Cloudy
87 °F
Feels Like 86 °F
N
5
Wind Variable Wind from North

Today
High -- | Low -- °F
--% Chance of Precip.
Yesterday
High -- | Low -- °F
Precip. -- in
7:25 AM 7:35 PM
Waning Crescent, 5% visible
Pressure 29.95 in
Visibility 10.0 miles
Clouds Few 4500 ft
Scattered Clouds 25000 ft
Heat Index 86 °F
Dew Point 59 °F
Humidity 39%
Rainfall 0.00 in
Snow Depth Not available.
UV 1 out of 12
Pollen 8.80 out of 12
Air Quality Not available.
Flu Activity Not available.
METAR KTLH 212153Z 01004KT 10SM FEW045 SCT250 31/15 A2996 RMK AO2 SLP142 T03060150

More Conditions Fewer Conditions

Pressure 29.95 in
Visibility 10.0 miles
Clouds Few 4500 ft
Scattered Clouds 25000 ft
Heat Index 86 °F
Dew Point 59 °F
Humidity 39%
Rainfall 0.00 in
Snow Depth Not available.
UV 1 out of 12
Pollen 8.80 out of 12
Air Quality Not available.
Flu Activity Not available.
METAR KTLH 212153Z 01004KT 10SM FEW045 SCT250 31/15 A2996 RMK AO2 SLP142 T03060150

More Conditions Fewer Conditions

10-Day Weather Forecast

Almanac

Astronomy

Sep. 21, 2014 Rise Set
Actual Time 7:25 AM EDT 7:35 PM EDT
Civil Twilight 7:01 AM EDT 7:59 PM EDT
Nautical Twilight 6:33 AM EDT 8:27 PM EDT
Astronomical Twilight 6:04 AM EDT 8:55 PM EDT
Moon 5:06 AM EDT 6:04 PM EDT
Length of Visible Light 12h 58m
Length of Day
12h 10m
Tomorrow will be 1m 50s shorter.
Waning Crescent, 5% of the Moon is Illuminated
Today
Waning Crescent
Sep 24
New
Oct 1
First Quarter
Oct 8
Full
Oct 15
Last Quarter

Today's Extremes

State Highs State Lows

Community

WunderPhotos

Upload Photos

1,755,278 photos uploaded!

WunderBlogs® & News

Nearby

Snow Depth

Station Depth Elevation
No new snow has been reported.

Earthquake Activity

City Distance Mag. Time & Date
No recent earthquake activity has been reported nearby.
Minimum magnitude displayed is 2.5.

Coastal Water Temperatures

Place Temperature
Apalachicola, FL 82.0 °F
Panama City, FL 84.9 °F

Nearby Weather Stations